Time;durP1;ratioP1;P1;durP2;ratioP2;P2;SDS_P1;SDS_P2;PMS_P1;PMS_P2;Temp;Humidity;BMP_temperature;BMP_pressure;BME280_temperature;BME280_humidity;BME280_pressure;Samples;Min_cycle;Max_cycle;Signal;HPM_P1;HPM_P2
2022/12/14 08:07:08;;;;;;;7.43;4.82;;;;;;;;;;13014885;22;1305797;-83
2022/12/14 08:12:09;;;;;;;8.82;6.38;;;;;;;;;;12978372;22;20070;-84
2022/12/14 08:17:11;;;;;;;;;;;;;;;;;;12982764;22;20015;-81
2022/12/14 08:22:12;;;;;;;13.80;7.97;;;;;;;;;;12993255;22;19910;-82
2022/12/14 08:27:13;;;;;;;12.52;7.35;;;;;;;;;;12983437;22;20006;-83
2022/12/14 08:32:14;;;;;;;11.75;7.45;;;;;;;;;;13007094;22;20163;-83
2022/12/14 08:37:15;;;;;;;;;;;;;;;;;;12979943;22;20000;-83
2022/12/14 08:42:23;;;;;;;13.13;9.13;;;;;;;;;;13009052;22;19910;-83
2022/12/14 08:47:24;;;;;;;13.40;8.80;;;;;;;;;;12982576;22;19999;-83
2022/12/14 08:52:25;;;;;;;11.25;7.85;;;;;;;;;;12980009;22;20284;-83
2022/12/14 08:57:26;;;;;;;12.50;7.68;;;;;;;;;;12979009;22;20339;-83
2022/12/14 09:02:27;;;;;;;;;;;;;;;;;;13008165;22;20004;-83
2022/12/14 09:07:29;;;;;;;11.20;6.65;;;;;;;;;;12976866;22;20291;-83
2022/12/14 09:12:30;;;;;;;11.13;6.65;;;;;;;;;;12978538;22;20014;-83
2022/12/14 09:17:36;;;;;;;8.30;6.45;;;;;;;;;;12976544;22;20010;-84
2022/12/14 09:22:37;;;;;;;15.50;9.73;;;;;;;;;;12976852;22;20008;-83
2022/12/14 09:27:39;;;;;;;12.07;7.63;;;;;;;;;;12977384;22;20424;-82
2022/12/14 09:32:42;;;;;;;9.35;6.03;;;;;;;;;;12974946;22;20113;-83
2022/12/14 09:37:43;;;;;;;9.18;5.85;;;;;;;;;;12975484;22;20336;-83
2022/12/14 09:42:58;;;;;;;10.57;6.30;;;;;;;;;;12977372;22;20010;-83
2022/12/14 09:48:04;;;;;;;9.15;6.30;;;;;;;;;;12985830;22;19996;-85
2022/12/14 09:53:07;;;;;;;8.27;6.25;;;;;;;;;;12978092;22;20486;-83
2022/12/14 09:58:20;;;;;;;9.52;6.30;;;;;;;;;;12952572;22;20099;-82
2022/12/14 10:03:33;;;;;;;10.38;5.95;;;;;;;;;;12975671;22;20004;-83
2022/12/14 10:08:37;;;;;;;10.25;6.95;;;;;;;;;;12976982;22;20016;-83
2022/12/14 10:13:52;;;;;;;11.73;7.47;;;;;;;;;;12976269;22;20014;-83
2022/12/14 10:19:01;;;;;;;11.25;8.02;;;;;;;;;;13015510;22;20013;-82
2022/12/14 10:24:08;;;;;;;8.02;5.35;;;;;;;;;;12998968;22;20023;-81
2022/12/14 10:29:17;;;;;;;9.95;6.60;;;;;;;;;;12977878;22;20107;-77
2022/12/14 10:34:19;;;;;;;11.98;7.00;;;;;;;;;;13006598;22;19992;-78
2022/12/14 10:39:22;;;;;;;8.77;6.07;;;;;;;;;;12965947;23;20008;-78
2022/12/14 10:44:27;;;;;;;11.02;6.65;;;;;;;;;;12962580;23;20008;-78
2022/12/14 10:49:28;;;;;;;9.50;5.60;;;;;;;;;;12938081;23;19997;-77
2022/12/14 10:54:38;;;;;;;8.23;5.60;;;;;;;;;;12933777;23;20016;-76
2022/12/14 10:59:40;;;;;;;9.95;5.93;;;;;;;;;;12940476;23;20009;-76
2022/12/14 11:04:47;;;;;;;7.32;5.57;;;;;;;;;;12934981;23;20004;-76
2022/12/14 11:09:48;;;;;;;8.93;5.97;;;;;;;;;;12939119;23;20016;-77
2022/12/14 11:14:49;;;;;;;;;;;;;;;;;;12942950;23;20004;-76
2022/12/14 11:20:02;;;;;;;12.52;8.73;;;;;;;;;;12922781;23;19903;-78
2022/12/14 11:25:03;;;;;;;8.75;6.10;;;;;;;;;;12910377;23;20091;-79
2022/12/14 11:30:05;;;;;;;9.30;6.35;;;;;;;;;;12913704;23;20018;-80
2022/12/14 11:35:05;;;;;;;;;;;;;;;;;;12918255;23;20012;-80
2022/12/14 11:40:17;;;;;;;9.52;6.35;;;;;;;;;;12913677;23;19899;-80
2022/12/14 11:45:24;;;;;;;10.07;7.20;;;;;;;;;;12916015;23;20459;-78
2022/12/14 11:50:26;;;;;;;10.65;7.43;;;;;;;;;;12910451;23;20005;-79
2022/12/14 11:55:26;;;;;;;;;;;;;;;;;;12916047;23;20043;-79
2022/12/14 12:00:30;;;;;;;11.70;7.40;;;;;;;;;;12910871;23;19974;-80
2022/12/14 12:05:32;;;;;;;12.05;7.55;;;;;;;;;;12947119;23;20016;-79
2022/12/14 12:10:59;;;;;;;10.73;6.28;;;;;;;;;;12955525;23;20010;-78
2022/12/14 12:16:03;;;;;;;13.07;8.07;;;;;;;;;;12935481;23;20008;-79
2022/12/14 12:21:15;;;;;;;12.93;7.32;;;;;;;;;;12908526;23;20004;-79
2022/12/14 12:26:19;;;;;;;12.55;7.53;;;;;;;;;;12935445;23;20028;-79
2022/12/14 12:31:25;;;;;;;10.68;7.32;;;;;;;;;;12946940;22;20062;-78
2022/12/14 12:36:27;;;;;;;11.80;7.40;;;;;;;;;;12937049;22;20008;-78
2022/12/14 12:41:28;;;;;;;;;;;;;;;;;;12963849;23;20027;-78
2022/12/14 12:46:44;;;;;;;10.32;7.10;;;;;;;;;;12962211;22;19903;-78
2022/12/14 12:51:48;;;;;;;12.80;8.18;;;;;;;;;;12934925;23;19996;-79
2022/12/14 12:56:50;;;;;;;10.82;7.30;;;;;;;;;;12934599;22;20007;-78
2022/12/14 13:01:52;;;;;;;11.25;7.38;;;;;;;;;;12932771;23;20000;-78
2022/12/14 13:07:01;;;;;;;12.00;8.25;;;;;;;;;;12933823;22;20031;-78
2022/12/14 13:12:02;;;;;;;10.43;6.97;;;;;;;;;;12955370;23;20091;-79
2022/12/14 13:17:05;;;;;;;12.38;8.15;;;;;;;;;;12930549;22;20011;-78
2022/12/14 13:22:10;;;;;;;10.07;6.93;;;;;;;;;;12939989;23;20015;-80
2022/12/14 13:27:18;;;;;;;9.65;6.97;;;;;;;;;;12970208;22;20000;-78
2022/12/14 13:32:19;;;;;;;8.68;6.28;;;;;;;;;;12950621;23;20004;-78
2022/12/14 13:37:38;;;;;;;8.77;6.57;;;;;;;;;;12937724;22;20004;-78
2022/12/14 13:42:42;;;;;;;8.80;6.50;;;;;;;;;;12938292;23;20016;-78
2022/12/14 13:47:50;;;;;;;11.15;7.43;;;;;;;;;;12937852;22;19997;-79
2022/12/14 13:52:53;;;;;;;9.27;6.07;;;;;;;;;;12938506;23;20011;-78
2022/12/14 13:58:05;;;;;;;10.40;6.35;;;;;;;;;;12936395;22;20034;-79
2022/12/14 14:03:07;;;;;;;8.68;6.40;;;;;;;;;;12936967;23;20000;-79
2022/12/14 14:08:32;;;;;;;8.85;6.57;;;;;;;;;;12966121;22;20008;-79
2022/12/14 14:13:33;;;;;;;9.63;6.68;;;;;;;;;;12964916;23;20000;-79
2022/12/14 14:18:36;;;;;;;9.00;5.93;;;;;;;;;;12964181;22;20035;-79
2022/12/14 14:23:51;;;;;;;9.32;7.10;;;;;;;;;;12963608;23;20027;-78
2022/12/14 14:29:12;;;;;;;7.22;5.32;;;;;;;;;;12935183;22;20008;-79
2022/12/14 14:34:16;;;;;;;8.90;6.40;;;;;;;;;;12913305;23;20031;-79
2022/12/14 14:39:29;;;;;;;8.50;5.78;;;;;;;;;;12914302;22;20011;-78
2022/12/14 14:44:43;;;;;;;7.55;6.05;;;;;;;;;;12923154;23;20004;-78
2022/12/14 14:49:44;;;;;;;9.88;5.45;;;;;;;;;;12936250;22;20007;-79
2022/12/14 14:54:45;;;;;;;;;;;;;;;;;;12910046;23;20023;-79
2022/12/14 14:59:46;;;;;;;7.82;5.90;;;;;;;;;;12936980;22;19927;-80
2022/12/14 15:04:47;;;;;;;;;;;;;;;;;;12912030;23;20015;-80
2022/12/14 15:09:52;;;;;;;9.02;5.50;;;;;;;;;;12907810;23;20287;-79
2022/12/14 15:14:54;;;;;;;8.07;5.38;;;;;;;;;;12908927;23;20011;-79
2022/12/14 15:19:56;;;;;;;8.63;5.93;;;;;;;;;;12914335;23;20004;-80
2022/12/14 15:24:59;;;;;;;8.27;6.07;;;;;;;;;;12915148;23;20032;-80
2022/12/14 15:30:12;;;;;;;6.53;4.28;;;;;;;;;;12912829;23;20029;-80
2022/12/14 15:35:15;;;;;;;8.05;5.53;;;;;;;;;;12912841;23;20012;-80
2022/12/14 15:40:19;;;;;;;8.05;5.53;;;;;;;;;;12913247;23;20460;-80
2022/12/14 15:45:25;;;;;;;7.60;5.28;;;;;;;;;;12946370;23;20056;-79
2022/12/14 15:50:29;;;;;;;8.07;5.53;;;;;;;;;;12954115;23;20001;-79
2022/12/14 15:55:35;;;;;;;6.82;5.18;;;;;;;;;;12949075;23;20079;-79
2022/12/14 16:00:39;;;;;;;11.77;6.20;;;;;;;;;;12916168;23;20005;-80
2022/12/14 16:05:41;;;;;;;8.93;6.43;;;;;;;;;;12941339;23;20004;-80
2022/12/14 16:10:42;;;;;;;7.40;5.88;;;;;;;;;;12912080;23;20050;-80
2022/12/14 16:15:45;;;;;;;7.57;5.22;;;;;;;;;;12912396;23;20456;-80
2022/12/14 16:20:54;;;;;;;8.15;6.30;;;;;;;;;;12912198;23;20087;-80
2022/12/14 16:25:59;;;;;;;9.13;6.15;;;;;;;;;;12911560;23;20004;-80
2022/12/14 16:31:13;;;;;;;7.15;5.32;;;;;;;;;;12910961;23;20170;-81
2022/12/14 16:36:20;;;;;;;5.90;4.60;;;;;;;;;;12909017;23;20044;-81
2022/12/14 16:41:33;;;;;;;9.18;5.28;;;;;;;;;;12935854;22;20000;-81
2022/12/14 16:46:34;;;;;;;8.02;5.68;;;;;;;;;;12908927;22;20008;-81
2022/12/14 16:51:39;;;;;;;7.80;5.18;;;;;;;;;;12911440;23;20075;-81
2022/12/14 16:56:42;;;;;;;9.15;6.18;;;;;;;;;;12912793;22;20008;-81
2022/12/14 17:01:43;;;;;;;7.55;5.38;;;;;;;;;;12908710;23;20102;-81
2022/12/14 17:06:47;;;;;;;6.90;5.00;;;;;;;;;;12907387;22;20098;-79
2022/12/14 17:11:49;;;;;;;7.10;4.95;;;;;;;;;;12931981;23;20003;-78
2022/12/14 17:16:52;;;;;;;7.50;5.20;;;;;;;;;;12921863;22;20011;-81
2022/12/14 17:21:53;;;;;;;11.38;8.40;;;;;;;;;;12912758;23;20004;-79
2022/12/14 17:26:54;;;;;;;15.00;9.85;;;;;;;;;;12911614;22;20044;-79
2022/12/14 17:31:59;;;;;;;8.85;7.20;;;;;;;;;;12907660;23;20324;-79
2022/12/14 17:37:00;;;;;;;8.65;7.18;;;;;;;;;;12935515;22;20067;-79
2022/12/14 17:42:01;;;;;;;10.10;7.68;;;;;;;;;;12907021;23;20386;-80
2022/12/14 17:47:02;;;;;;;8.23;6.50;;;;;;;;;;12903624;22;20039;-80
2022/12/14 17:52:05;;;;;;;9.43;6.95;;;;;;;;;;12903147;23;20019;-80
2022/12/14 17:57:16;;;;;;;9.15;6.70;;;;;;;;;;12903178;22;20331;-79
2022/12/14 18:02:23;;;;;;;8.75;6.55;;;;;;;;;;12930926;23;20004;-80
2022/12/14 18:07:24;;;;;;;8.00;6.57;;;;;;;;;;12906702;22;20007;-80
2022/12/14 18:12:25;;;;;;;11.23;8.02;;;;;;;;;;12905258;23;20011;-79
2022/12/14 18:17:26;;;;;;;8.15;6.65;;;;;;;;;;12905864;22;20440;-78
2022/12/14 18:22:27;;;;;;;9.02;6.90;;;;;;;;;;12904578;23;20028;-79
2022/12/14 18:27:28;;;;;;;10.35;7.45;;;;;;;;;;12903155;22;20008;-80
2022/12/14 18:32:29;;;;;;;8.52;7.10;;;;;;;;;;12903841;23;20079;-80
2022/12/14 18:37:30;;;;;;;9.57;6.97;;;;;;;;;;12903594;22;20004;-80
2022/12/14 18:42:31;;;;;;;10.57;8.05;;;;;;;;;;12930313;23;20328;-80
2022/12/14 18:47:32;;;;;;;11.65;8.98;;;;;;;;;;12904719;22;20000;-80
2022/12/14 18:52:33;;;;;;;12.00;9.02;;;;;;;;;;12903098;23;20475;-80
2022/12/14 18:57:34;;;;;;;9.95;8.10;;;;;;;;;;12904132;22;20036;-80
2022/12/14 19:02:35;;;;;;;12.23;9.35;;;;;;;;;;12930812;23;20000;-79
2022/12/14 19:07:36;;;;;;;10.55;8.35;;;;;;;;;;12903503;22;20000;-80
2022/12/14 19:12:38;;;;;;;11.60;7.95;;;;;;;;;;12904604;23;20023;-80
2022/12/14 19:17:38;;;;;;;10.55;8.35;;;;;;;;;;12905179;22;20015;-81
2022/12/14 19:22:40;;;;;;;11.45;8.40;;;;;;;;;;12905321;23;20004;-80
2022/12/14 19:27:41;;;;;;;15.32;10.32;;;;;;;;;;12942949;22;20087;-80
2022/12/14 19:32:42;;;;;;;10.57;8.02;;;;;;;;;;12920406;23;20059;-79
2022/12/14 19:37:44;;;;;;;14.00;11.23;;;;;;;;;;12922763;22;20118;-80
2022/12/14 19:42:45;;;;;;;;;;;;;;;;;;12932562;23;20083;-80
2022/12/14 19:47:46;;;;;;;;;;;;;;;;;;12932221;22;19906;-80
2022/12/14 19:52:47;;;;;;;12.50;10.30;;;;;;;;;;12904360;23;19979;-80
2022/12/14 19:57:48;;;;;;;;;;;;;;;;;;12905183;22;20031;-80
2022/12/14 20:02:49;;;;;;;12.40;9.70;;;;;;;;;;12907728;23;20313;-82
2022/12/14 20:07:50;;;;;;;13.30;10.40;;;;;;;;;;12909000;22;20004;-80
2022/12/14 20:12:51;;;;;;;11.93;9.93;;;;;;;;;;12907297;23;20004;-82
2022/12/14 20:17:52;;;;;;;13.52;10.15;;;;;;;;;;12909098;22;20504;-80
